General Francisco J Mujica International Airport
MMMM : now visible

Airfield :











YOU CAN JOIN US ON...

 
LOGIN :

Register | Disclaimer

   EN    FR    IT 

 









Legend :    VFR   Marginal VFR   IFR   Intensive IFR   Very Intensive IFR
Visi :
Ceiling :
>= 8 km
>= 3000ft
5 to 8 km
1000 to 3000 ft
1500m to 5 km
500 to 1000 ft
800 to 1500m
200 to 500 ft
< 800m
< 200 ft
Symbols :   Thunderstorms  Fog  Heavy snow  Heavy precipitations  Wind > 20 kt






- Airport Elevation : 6033 ft
- IATA code : MLM


MMMM - General Francisco J Mujica International

CURRENT METAR :
  • 112052Z 19013KT 6SM FEW030 SCT230 24/04 A3024 RMK SLP127 57026 913 8/101 HZY

EXPIRED METARs :
  • 111945Z 21006KT 6SM FEW030 SCT230 24/07 A3025 RMK 8/101 HZY
  • 111850Z 18004KT 6SM SCT030 SCT230 22/09 A3028 RMK 8/101 HZY

TAF TAF MMMM
Valid from the 11 at 18:00 until the 13 at 00:00 UTC


111701Z 1118/1224 16005KT 6SM HZ SKC
BECMG 1120/1121 18010KT SCT260
FM120200 00000KT P6SM SCT260
BECMG 1211/1212 5SM HZ SCT020 SCT260
FM121600 00000KT 6SM HZ BKN260
BECMG 1220/1221 34010KT



MET'MAP, your aeronautical weather chart ! - Copyright ORBIFLY December 2007 - Disclaimer

ORBIFLY MET'MAP TEAM :

Programming & Development : Alexandra Zaïnal
Concept & original design : Baudouin d'Aumeries
Assistance for programming : Marc-Olivier Méhu
Technical & hardware support : Manuel Goepfert

Contact : metmap@orbifly.com




SOURCES & CREDITS :

   NOAA       Earth
Advisory